createdAt,value
2018-05-14T00:00:33.685Z,577.23
2018-05-14T00:03:07.521Z,582.90
2018-05-14T00:05:41.414Z,636.37
2018-05-14T00:08:15.167Z,544.57
2018-05-14T00:10:48.988Z,659.90
2018-05-14T00:13:23.265Z,546.27
2018-05-14T00:15:56.982Z,698.40
2018-05-14T00:18:31.803Z,525.87
2018-05-14T00:21:05.593Z,850.20
2018-05-14T00:23:39.372Z,1011.93
2018-05-14T00:26:13.082Z,695.97
2018-05-14T00:28:46.918Z,715.57
2018-05-14T00:31:20.717Z,762.50
2018-05-14T00:33:54.618Z,928.93
2018-05-14T00:36:29.317Z,905.50
2018-05-14T00:39:03.191Z,911.27
2018-05-14T00:41:37.923Z,734.60
2018-05-14T00:44:11.693Z,877.27
2018-05-14T00:46:45.372Z,664.17
2018-05-14T00:49:19.157Z,431.70
2018-05-14T00:51:52.825Z,603.07
2018-05-14T00:54:26.617Z,677.27
2018-05-14T00:57:00.354Z,391.77
2018-05-14T00:59:34.229Z,638.50
2018-05-14T01:02:07.794Z,611.80
2018-05-14T01:04:42.512Z,711.33
2018-05-14T01:07:16.361Z,775.57
2018-05-14T01:09:50.129Z,593.10
2018-05-14T01:12:23.889Z,723.37
2018-05-14T01:14:57.656Z,714.13
2018-05-14T01:17:31.315Z,543.90
2018-05-14T01:20:05.177Z,863.63
2018-05-14T01:22:38.889Z,736.47
2018-05-14T01:25:12.596Z,742.53
2018-05-14T01:27:46.195Z,865.30
2018-05-14T01:30:19.933Z,969.90
2018-05-14T01:32:53.652Z,830.37
2018-05-14T01:35:27.365Z,1051.33
2018-05-14T01:38:01.145Z,962.23
2018-05-14T01:40:35.026Z,982.40
2018-05-14T01:43:08.750Z,837.63
2018-05-14T01:45:42.545Z,892.93
2018-05-14T01:48:16.370Z,626.67
2018-05-14T01:50:50.147Z,831.63
2018-05-14T01:53:23.830Z,909.17
2018-05-14T01:55:57.620Z,849.67
2018-05-14T01:58:31.337Z,928.90
2018-05-14T02:01:05.045Z,1095.00
2018-05-14T02:03:38.768Z,809.57
2018-05-14T02:06:12.481Z,1030.37
2018-05-14T02:08:46.382Z,901.57
2018-05-14T02:11:20.193Z,1077.60
2018-05-14T02:13:53.962Z,702.13
2018-05-14T02:16:27.748Z,815.93
2018-05-14T02:19:01.494Z,654.70
2018-05-14T02:21:35.231Z,752.17
2018-05-14T02:24:08.868Z,648.03
2018-05-14T02:26:42.497Z,433.57
2018-05-14T02:29:16.428Z,384.20
2018-05-14T02:31:50.146Z,618.27
2018-05-14T02:34:23.789Z,588.90
2018-05-14T02:40:11.592Z,341.27
2018-05-14T02:42:45.299Z,479.03
2018-05-14T02:45:19.056Z,368.90
2018-05-14T02:47:52.770Z,299.10
2018-05-14T02:50:26.551Z,372.40
2018-05-14T02:53:00.422Z,403.87
2018-05-14T02:55:34.313Z,427.83
2018-05-14T02:58:08.007Z,302.53
2018-05-14T03:00:41.714Z,394.70
2018-05-14T03:03:15.329Z,342.77
2018-05-14T03:05:49.170Z,368.43
2018-05-14T03:08:22.953Z,413.07
2018-05-14T03:10:56.706Z,292.40
2018-05-14T03:13:30.342Z,291.80
2018-05-14T03:16:04.044Z,321.73
2018-05-14T03:18:37.745Z,286.27
2018-05-14T03:21:11.381Z,328.77
2018-05-14T03:23:45.025Z,380.50
2018-05-14T03:26:18.805Z,342.73
2018-05-14T03:28:52.506Z,310.50
2018-05-14T03:31:26.276Z,349.40
2018-05-14T03:34:00.038Z,411.53
2018-05-14T03:36:33.822Z,350.37
2018-05-14T03:39:07.389Z,304.63
2018-05-14T03:41:41.114Z,253.40
2018-05-14T03:44:14.785Z,265.37
2018-05-14T03:46:48.623Z,341.97
2018-05-14T03:49:22.279Z,313.77
2018-05-14T03:51:55.973Z,293.67
2018-05-14T03:54:29.858Z,267.00
2018-05-14T03:57:18.244Z,274.00
2018-05-14T04:00:03.677Z,269.87
2018-05-14T04:02:49.325Z,213.57
2018-05-14T04:08:16.968Z,219.33
2018-05-14T04:10:50.971Z,227.67
2018-05-14T04:13:24.455Z,222.57
2018-05-14T04:15:58.014Z,200.27
2018-05-14T04:18:31.597Z,179.30
2018-05-14T04:21:05.303Z,194.10
2018-05-14T04:23:39.506Z,213.10
2018-05-14T04:26:13.248Z,194.73
2018-05-14T04:28:46.791Z,188.30
2018-05-14T04:31:20.355Z,187.87
2018-05-14T04:33:53.952Z,169.20
2018-05-14T04:36:27.575Z,166.27
2018-05-14T04:39:01.194Z,166.17
2018-05-14T04:41:34.828Z,183.57
2018-05-14T04:44:08.549Z,165.80
2018-05-14T04:46:42.145Z,153.80
2018-05-14T04:49:15.817Z,153.33
2018-05-14T04:51:49.476Z,159.50
2018-05-14T04:54:23.303Z,164.07
2018-05-14T04:56:57.173Z,154.57
2018-05-14T04:59:30.948Z,156.90
2018-05-14T05:02:04.526Z,155.40
2018-05-14T05:04:38.271Z,150.67
2018-05-14T05:07:11.947Z,143.37
2018-05-14T05:09:45.631Z,135.43
2018-05-14T05:12:19.195Z,124.53
2018-05-14T05:14:52.750Z,118.10
2018-05-14T05:17:26.610Z,119.20
2018-05-14T05:20:00.164Z,121.03
2018-05-14T05:22:33.972Z,122.73
2018-05-14T05:25:07.676Z,120.33
2018-05-14T05:27:41.359Z,113.50
2018-05-14T05:30:15.131Z,106.13
2018-05-14T05:32:48.767Z,115.70
2018-05-14T05:35:22.471Z,115.93
2018-05-14T05:37:56.284Z,109.10
2018-05-14T05:40:29.787Z,105.53
2018-05-14T05:43:03.608Z,109.13
2018-05-14T05:45:37.394Z,107.70
2018-05-14T05:48:11.263Z,90.10
2018-05-14T05:50:44.905Z,95.33
2018-05-14T05:53:18.435Z,97.67
2018-05-14T05:55:52.253Z,109.47
2018-05-14T05:58:25.968Z,95.83
2018-05-14T06:00:59.826Z,99.53
2018-05-14T06:03:33.638Z,94.70
2018-05-14T06:06:07.208Z,97.43
2018-05-14T06:08:40.786Z,86.97
2018-05-14T06:11:14.424Z,91.77
2018-05-14T06:13:47.946Z,84.83
2018-05-14T06:16:21.636Z,83.70
2018-05-14T06:18:55.408Z,94.57
2018-05-14T06:21:29.011Z,79.40
2018-05-14T06:24:02.653Z,81.67
2018-05-14T06:26:36.372Z,78.97
2018-05-14T06:29:10.136Z,84.37
2018-05-14T06:31:43.694Z,90.23
2018-05-14T06:34:17.382Z,80.53
2018-05-14T06:36:51.125Z,75.50
2018-05-14T06:39:25.180Z,72.50
2018-05-14T06:41:58.840Z,76.27
2018-05-14T06:44:32.396Z,68.17
2018-05-14T06:47:06.034Z,80.23
2018-05-14T06:49:39.676Z,72.23
2018-05-14T06:52:13.499Z,77.13
2018-05-14T06:54:47.108Z,75.97
2018-05-14T06:57:20.675Z,77.60
2018-05-14T06:59:54.214Z,69.03
2018-05-14T07:02:27.941Z,62.40
2018-05-14T07:05:01.582Z,59.97
2018-05-14T07:07:35.136Z,55.40
2018-05-14T07:10:08.702Z,49.97
2018-05-14T07:12:42.463Z,47.57
2018-05-14T07:15:16.060Z,47.70
2018-05-14T07:17:49.788Z,46.70
2018-05-14T07:20:23.518Z,46.13
2018-05-14T07:22:57.249Z,44.87
2018-05-14T07:25:30.801Z,42.73
2018-05-14T07:28:04.428Z,41.40
2018-05-14T07:30:38.012Z,42.80
2018-05-14T07:33:11.600Z,41.97
2018-05-14T07:35:45.135Z,42.33
2018-05-14T07:38:18.791Z,42.07
2018-05-14T07:40:52.371Z,40.07
2018-05-14T07:43:26.014Z,38.60
2018-05-14T07:45:59.688Z,39.80
2018-05-14T07:48:33.465Z,42.50
2018-05-14T07:51:07.213Z,38.57
2018-05-14T07:53:40.996Z,44.37
2018-05-14T07:56:14.656Z,36.10
2018-05-14T07:58:48.268Z,38.63
2018-05-14T08:01:22.038Z,42.80
2018-05-14T08:03:55.600Z,40.10
2018-05-14T08:06:29.450Z,38.37
2018-05-14T08:09:03.080Z,38.43
2018-05-14T08:11:36.952Z,35.00
2018-05-14T08:14:10.540Z,35.93
2018-05-14T08:16:44.320Z,34.83
2018-05-14T08:19:17.888Z,31.90
2018-05-14T08:21:51.399Z,32.07
2018-05-14T08:24:24.920Z,34.50
2018-05-14T08:26:58.732Z,34.60
2018-05-14T08:29:32.852Z,33.17
2018-05-14T08:32:06.512Z,32.43
2018-05-14T08:34:40.053Z,30.00
2018-05-14T08:37:13.878Z,33.03
2018-05-14T08:39:47.364Z,30.53
2018-05-14T08:42:20.946Z,31.97
2018-05-14T08:44:54.481Z,32.23
2018-05-14T08:47:28.560Z,30.17
2018-05-14T08:50:02.023Z,32.03
2018-05-14T08:52:35.584Z,30.23
2018-05-14T08:55:09.178Z,27.60
2018-05-14T08:57:42.702Z,29.30
2018-05-14T09:00:16.412Z,28.10
2018-05-14T09:02:49.962Z,29.57
2018-05-14T09:05:23.502Z,28.63
2018-05-14T09:07:57.148Z,30.53
2018-05-14T09:10:30.844Z,29.00
2018-05-14T09:13:04.442Z,30.43
2018-05-14T09:15:38.199Z,29.37
2018-05-14T09:18:11.861Z,30.50
2018-05-14T09:20:45.432Z,28.83
2018-05-14T09:23:19.117Z,28.47
2018-05-14T09:25:52.912Z,30.63
2018-05-14T09:28:26.500Z,28.53
2018-05-14T09:31:00.103Z,29.43
2018-05-14T09:33:33.838Z,29.33
2018-05-14T09:36:07.458Z,28.27
2018-05-14T09:38:41.209Z,27.37
2018-05-14T09:41:14.776Z,27.73
2018-05-14T09:43:48.398Z,28.20
2018-05-14T09:46:22.080Z,29.60
2018-05-14T09:48:55.612Z,31.90
2018-05-14T09:51:29.332Z,29.43
2018-05-14T09:54:02.896Z,28.83
2018-05-14T09:56:36.487Z,29.70
2018-05-14T09:59:10.081Z,29.97
2018-05-14T10:01:43.849Z,28.97
2018-05-14T10:04:17.427Z,27.37
2018-05-14T10:06:51.054Z,28.07
2018-05-14T10:09:24.749Z,29.53
2018-05-14T10:11:58.584Z,28.77
2018-05-14T10:14:32.163Z,28.30
2018-05-14T10:17:05.739Z,29.07
2018-05-14T10:19:39.610Z,28.67
2018-05-14T10:22:13.416Z,27.03
2018-05-14T10:24:46.977Z,27.90
2018-05-14T10:27:20.577Z,30.63
2018-05-14T10:29:54.198Z,29.30
2018-05-14T10:32:28.029Z,29.37
2018-05-14T10:35:01.816Z,29.53
2018-05-14T10:37:35.415Z,29.07
2018-05-14T10:40:09.120Z,29.87
2018-05-14T10:42:42.759Z,28.13
2018-05-14T10:45:16.344Z,27.40
2018-05-14T10:47:49.963Z,27.17
2018-05-14T10:50:23.592Z,29.27
2018-05-14T10:52:57.282Z,26.03
2018-05-14T10:55:30.953Z,27.33
2018-05-14T10:58:04.760Z,25.60
2018-05-14T11:00:38.348Z,23.33
2018-05-14T11:03:11.914Z,25.07
2018-05-14T11:05:45.467Z,25.70
2018-05-14T11:08:19.359Z,24.83
2018-05-14T11:10:53.043Z,25.27
2018-05-14T11:13:26.712Z,26.47
2018-05-14T11:16:00.267Z,24.93
2018-05-14T11:18:33.932Z,23.60
2018-05-14T11:21:07.696Z,24.57
2018-05-14T11:23:41.260Z,28.20
2018-05-14T11:26:15.106Z,24.63
2018-05-14T11:28:48.663Z,23.93
2018-05-14T11:31:22.176Z,24.73
2018-05-14T11:33:55.737Z,24.47
2018-05-14T11:39:41.201Z,20.30
2018-05-14T11:42:14.780Z,20.90
2018-05-14T11:44:48.537Z,22.40
2018-05-14T11:47:22.205Z,23.67
2018-05-14T11:49:55.890Z,20.73
2018-05-14T11:52:29.456Z,20.37
2018-05-14T11:55:03.216Z,20.63
2018-05-14T11:57:36.892Z,20.70
2018-05-14T12:00:10.490Z,23.17
2018-05-14T12:02:44.360Z,21.37
2018-05-14T12:05:17.941Z,22.77
2018-05-14T12:07:51.596Z,21.47
2018-05-14T12:10:25.186Z,19.50
2018-05-14T12:12:58.759Z,21.20
2018-05-14T12:15:32.646Z,20.97
2018-05-14T12:18:06.555Z,20.57
2018-05-14T12:20:40.060Z,20.43
2018-05-14T12:23:13.716Z,20.77
2018-05-14T12:25:47.308Z,17.90
2018-05-14T12:28:20.846Z,15.77
2018-05-14T12:30:54.424Z,17.23
2018-05-14T12:33:28.330Z,18.20
2018-05-14T12:36:02.088Z,15.37
2018-05-14T12:38:35.850Z,20.63
2018-05-14T12:41:09.652Z,16.13
2018-05-14T12:43:43.208Z,14.10
2018-05-14T12:46:16.804Z,13.03
2018-05-14T12:48:50.308Z,16.00
2018-05-14T12:51:23.976Z,16.67
2018-05-14T12:53:57.559Z,16.43
2018-05-14T12:56:31.157Z,17.93
2018-05-14T12:59:04.687Z,14.10
2018-05-14T13:01:38.450Z,11.73
2018-05-14T13:04:12.308Z,12.03
2018-05-14T13:06:45.976Z,11.90
2018-05-14T13:09:19.844Z,13.97
2018-05-14T13:11:53.444Z,10.50
2018-05-14T13:14:26.999Z,10.43
2018-05-14T13:17:00.642Z,12.53
2018-05-14T13:19:34.338Z,13.90
2018-05-14T13:22:07.941Z,9.47
2018-05-14T13:24:42.055Z,11.50
2018-05-14T13:27:15.716Z,9.37
2018-05-14T13:29:49.286Z,11.10
2018-05-14T13:32:22.917Z,11.20
2018-05-14T13:34:56.473Z,11.13
2018-05-14T13:37:30.209Z,12.50
2018-05-14T13:40:03.877Z,9.97
2018-05-14T13:42:37.509Z,7.93
2018-05-14T13:45:11.107Z,9.90
2018-05-14T13:47:44.783Z,14.33
2018-05-14T13:50:18.521Z,9.87
2018-05-14T13:52:52.371Z,13.07
2018-05-14T13:55:25.860Z,8.83
2018-05-14T13:57:59.498Z,8.43
2018-05-14T14:00:33.048Z,17.40
2018-05-14T14:03:06.695Z,8.20
2018-05-14T14:05:40.311Z,9.43
2018-05-14T14:08:13.860Z,9.80
2018-05-14T14:10:47.617Z,10.20
2018-05-14T14:13:21.258Z,9.87
2018-05-14T14:15:55.034Z,8.60
2018-05-14T14:18:28.671Z,6.47
2018-05-14T14:21:02.266Z,6.93
2018-05-14T14:23:36.021Z,7.20
2018-05-14T14:26:09.544Z,11.80
2018-05-14T14:28:43.119Z,8.60
2018-05-14T14:31:16.783Z,6.93
2018-05-14T14:33:50.363Z,6.77
2018-05-14T14:36:24.206Z,8.47
2018-05-14T14:38:57.950Z,9.97
2018-05-14T14:41:31.626Z,7.43
2018-05-14T14:44:05.400Z,5.90
2018-05-14T14:46:39.236Z,6.33
2018-05-14T14:49:12.977Z,5.13
2018-05-14T14:51:46.531Z,7.17
2018-05-14T14:54:20.151Z,6.07
2018-05-14T14:56:53.734Z,4.50
2018-05-14T14:59:27.304Z,8.30
2018-05-14T15:02:01.098Z,4.17
2018-05-14T15:04:34.812Z,5.70
2018-05-14T15:07:08.412Z,8.20
2018-05-14T15:09:42.127Z,4.33
2018-05-14T15:12:15.736Z,9.20
2018-05-14T15:14:49.533Z,5.53
2018-05-14T15:17:23.065Z,4.30
2018-05-14T15:19:56.594Z,4.23
2018-05-14T15:22:30.136Z,6.47
2018-05-14T15:25:03.752Z,6.00
2018-05-14T15:27:37.476Z,5.80
2018-05-14T15:30:11.326Z,6.20
2018-05-14T15:32:44.975Z,8.13
2018-05-14T15:35:18.615Z,6.40
2018-05-14T15:37:52.160Z,5.10
2018-05-14T15:40:25.701Z,4.30
2018-05-14T15:42:59.365Z,10.93
2018-05-14T15:45:33.029Z,4.53
2018-05-14T15:48:06.638Z,6.20
2018-05-14T15:50:40.396Z,4.50
2018-05-14T15:53:14.008Z,8.13
2018-05-14T15:55:47.623Z,7.40
2018-05-14T15:58:21.375Z,7.03
2018-05-14T16:00:55.148Z,9.50
2018-05-14T16:03:28.928Z,5.80
2018-05-14T16:06:02.504Z,6.80
2018-05-14T16:08:36.132Z,5.97
2018-05-14T16:11:09.968Z,6.13
2018-05-14T16:13:43.767Z,9.20
2018-05-14T16:16:17.392Z,4.97
2018-05-14T16:18:50.982Z,5.37
2018-05-14T16:21:24.968Z,4.23
2018-05-14T16:23:58.552Z,8.97
2018-05-14T16:26:32.273Z,6.43
2018-05-14T16:29:05.804Z,8.77
2018-05-14T16:31:39.531Z,5.83
2018-05-14T16:34:13.252Z,5.17
2018-05-14T16:36:47.064Z,9.13
2018-05-14T16:39:20.627Z,6.87
2018-05-14T16:41:54.324Z,10.37
2018-05-14T16:44:27.934Z,9.03
2018-05-14T16:47:01.751Z,6.00
2018-05-14T16:49:35.300Z,7.13
2018-05-14T16:52:09.037Z,5.93
2018-05-14T16:54:42.719Z,6.97
2018-05-14T16:57:16.290Z,5.30
2018-05-14T16:59:49.868Z,8.57
2018-05-14T17:02:23.604Z,4.97
2018-05-14T17:04:57.147Z,7.60
2018-05-14T17:07:30.804Z,5.67
2018-05-14T17:10:04.330Z,4.23
2018-05-14T17:12:38.088Z,4.80
2018-05-14T17:15:11.841Z,7.47
2018-05-14T17:17:45.385Z,5.10
2018-05-14T17:20:18.959Z,5.53
2018-05-14T17:22:52.736Z,5.67
2018-05-14T17:25:27.299Z,4.33
2018-05-14T17:28:00.966Z,6.10
2018-05-14T17:30:34.699Z,6.40
2018-05-14T17:33:08.340Z,9.57
2018-05-14T17:35:42.019Z,7.07
2018-05-14T17:38:15.607Z,5.57
2018-05-14T17:40:49.408Z,5.77
2018-05-14T17:43:23.032Z,4.57
2018-05-14T17:45:56.817Z,4.70
2018-05-14T17:48:30.524Z,6.20
2018-05-14T17:51:04.304Z,9.27
2018-05-14T17:53:37.887Z,5.30
2018-05-14T17:56:11.473Z,6.03
2018-05-14T17:58:45.136Z,5.53
2018-05-14T18:01:18.895Z,5.13
2018-05-14T18:03:52.431Z,5.90
2018-05-14T18:06:26.236Z,6.23
2018-05-14T18:08:59.727Z,5.50
2018-05-14T18:11:33.519Z,5.53
2018-05-14T18:14:07.120Z,9.73
2018-05-14T18:16:40.875Z,6.43
2018-05-14T18:19:14.485Z,5.10
2018-05-14T18:21:48.000Z,12.03
2018-05-14T18:24:21.568Z,4.83
2018-05-14T18:26:55.128Z,8.80
2018-05-14T18:29:30.677Z,5.67
2018-05-14T18:32:05.303Z,8.60
2018-05-14T18:34:39.892Z,6.67
2018-05-14T18:37:13.680Z,7.93
2018-05-14T18:39:47.341Z,6.33
2018-05-14T18:42:20.911Z,8.33
2018-05-14T18:44:54.507Z,6.40
2018-05-14T18:47:28.211Z,11.83
2018-05-14T18:50:01.829Z,5.03
2018-05-14T18:52:35.533Z,8.90
2018-05-14T18:55:09.106Z,6.53
2018-05-14T18:57:42.617Z,5.83
2018-05-14T19:00:16.388Z,4.93
2018-05-14T19:02:50.048Z,7.67
2018-05-14T19:05:23.707Z,8.13
2018-05-14T19:07:57.368Z,8.00
2018-05-14T19:10:36.931Z,7.97
2018-05-14T19:13:10.667Z,6.13
2018-05-14T19:15:50.082Z,10.67
2018-05-14T19:18:23.766Z,9.63
2018-05-14T19:20:57.400Z,8.27
2018-05-14T19:23:36.740Z,6.13
2018-05-14T19:26:10.403Z,6.67
2018-05-14T19:28:49.811Z,6.27
2018-05-14T19:31:23.498Z,6.57
2018-05-14T19:34:02.994Z,7.57
2018-05-14T19:36:36.719Z,6.30
2018-05-14T19:39:10.277Z,5.63
2018-05-14T19:41:43.832Z,9.33
2018-05-14T19:44:17.594Z,6.67
2018-05-14T19:46:51.436Z,5.80
2018-05-14T19:49:25.178Z,7.83
2018-05-14T19:51:58.904Z,5.40
2018-05-14T19:54:32.663Z,7.90
2018-05-14T19:57:06.277Z,5.80
2018-05-14T19:59:39.960Z,7.23
2018-05-14T20:02:13.593Z,6.30
2018-05-14T20:04:47.330Z,8.40
2018-05-14T20:07:20.912Z,6.50
2018-05-14T20:09:54.659Z,7.60
2018-05-14T20:12:28.483Z,6.53
2018-05-14T20:15:02.047Z,7.43
2018-05-14T20:17:35.552Z,7.80
2018-05-14T20:20:09.316Z,8.53
2018-05-14T20:22:43.057Z,6.67
2018-05-14T20:25:16.853Z,6.33
2018-05-14T20:27:50.518Z,8.03
2018-05-14T20:30:24.344Z,8.70
2018-05-14T20:32:57.960Z,7.43
2018-05-14T20:35:31.803Z,8.63
2018-05-14T20:38:05.375Z,5.47
2018-05-14T20:40:39.233Z,11.03
2018-05-14T20:43:12.797Z,6.40
2018-05-14T20:45:46.528Z,7.27
2018-05-14T20:48:20.311Z,7.37
2018-05-14T20:50:54.075Z,7.20
2018-05-14T20:53:27.652Z,7.43
2018-05-14T20:56:01.207Z,5.97
2018-05-14T20:58:35.008Z,5.33
2018-05-14T21:01:08.598Z,7.60
2018-05-14T21:03:42.198Z,4.77
2018-05-14T21:06:15.714Z,9.67
2018-05-14T21:08:49.473Z,9.67
2018-05-14T21:11:23.183Z,6.47
2018-05-14T21:13:56.884Z,7.10
2018-05-14T21:16:30.477Z,8.10
2018-05-14T21:19:04.075Z,6.67
2018-05-14T21:21:37.732Z,10.10
2018-05-14T21:24:11.324Z,11.67
2018-05-14T21:26:45.069Z,8.83
2018-05-14T21:29:18.747Z,7.53
2018-05-14T21:31:52.280Z,11.53
2018-05-14T21:34:25.947Z,7.10
2018-05-14T21:36:59.527Z,8.30
2018-05-14T21:39:33.300Z,6.70
2018-05-14T21:42:07.036Z,8.47
2018-05-14T21:44:40.563Z,4.40
2018-05-14T21:47:14.127Z,8.17
2018-05-14T21:49:47.907Z,7.43
2018-05-14T21:52:21.583Z,8.30
2018-05-14T21:54:55.298Z,6.30
2018-05-14T21:57:28.878Z,6.13
2018-05-14T22:00:02.657Z,9.43
2018-05-14T22:02:36.448Z,6.73
2018-05-14T22:05:10.030Z,6.50
2018-05-14T22:07:43.528Z,7.83
2018-05-14T22:10:17.221Z,5.20
2018-05-14T22:12:50.917Z,6.87
2018-05-14T22:15:24.510Z,4.60
2018-05-14T22:17:58.176Z,4.77
2018-05-14T22:20:31.907Z,6.17
2018-05-14T22:23:05.448Z,8.03
2018-05-14T22:25:39.104Z,6.23
2018-05-14T22:28:12.783Z,6.30
2018-05-14T22:30:46.300Z,4.67
2018-05-14T22:33:19.907Z,9.33
2018-05-14T22:35:53.536Z,9.07
2018-05-14T22:38:27.122Z,5.87
2018-05-14T22:41:00.636Z,7.63
2018-05-14T22:43:34.197Z,7.63
2018-05-14T22:46:07.848Z,5.30
2018-05-14T22:48:41.467Z,7.07
2018-05-14T22:51:15.199Z,6.77
2018-05-14T22:53:48.868Z,9.27
2018-05-14T22:56:39.275Z,7.13
2018-05-14T22:59:13.032Z,12.60
2018-05-14T23:01:46.809Z,7.67
2018-05-14T23:04:20.416Z,5.57
2018-05-14T23:06:54.267Z,11.37
2018-05-14T23:09:28.042Z,5.97
2018-05-14T23:12:01.825Z,6.53
2018-05-14T23:14:35.408Z,7.97
2018-05-14T23:17:09.078Z,8.63
2018-05-14T23:19:42.748Z,6.33
2018-05-14T23:22:16.328Z,6.73
2018-05-14T23:24:49.949Z,5.27
2018-05-14T23:27:23.576Z,6.60
2018-05-14T23:29:57.397Z,11.00
2018-05-14T23:32:31.118Z,9.07
2018-05-14T23:35:04.809Z,5.60
2018-05-14T23:37:38.521Z,5.90
2018-05-14T23:40:12.055Z,7.83
2018-05-14T23:42:46.056Z,6.27
2018-05-14T23:45:19.707Z,5.67
2018-05-14T23:47:53.473Z,5.37
2018-05-14T23:50:27.120Z,8.37
2018-05-14T23:53:00.699Z,8.10
2018-05-14T23:55:34.337Z,6.50
2018-05-14T23:58:07.958Z,11.10
